Time;durP1;ratioP1;P1;durP2;ratioP2;P2;SDS_P1;SDS_P2;PMS_P1;PMS_P2;Temp;Humidity;BMP_temperature;BMP_pressure;BME280_temperature;BME280_humidity;BME280_pressure;Samples;Min_cycle;Max_cycle;Signal;HPM_P1;HPM_P2
2022/10/23 00:00:18;;;;;;;9.45;6.43;;;;;;;7.09;96.86;100856.38;5054688;28;20029;-69
2022/10/23 00:02:44;;;;;;;10.45;6.72;;;;;;;7.02;96.83;100852.38;5053764;28;20039;-71
2022/10/23 00:05:10;;;;;;;8.45;6.63;;;;;;;7.04;96.46;100858.47;5063713;28;20555;-71
2022/10/23 00:07:35;;;;;;;7.53;6.40;;;;;;;7.08;96.57;100850.19;5064733;28;20048;-70
2022/10/23 00:10:01;;;;;;;8.73;6.43;;;;;;;7.16;96.56;100853.22;5061819;28;20025;-70
2022/10/23 00:12:27;;;;;;;7.50;6.47;;;;;;;7.12;96.70;100854.38;5052792;28;20021;-71
2022/10/23 00:14:52;;;;;;;8.38;6.68;;;;;;;7.14;96.86;100851.59;5052704;28;20126;-71
2022/10/23 00:17:18;;;;;;;9.02;6.22;;;;;;;7.13;96.05;100863.25;5053566;28;20017;-70
2022/10/23 00:19:43;;;;;;;8.88;6.55;;;;;;;7.20;96.43;100853.84;5052076;28;20476;-69
2022/10/23 00:22:10;;;;;;;8.50;6.63;;;;;;;7.08;96.08;100854.69;5053960;28;20059;-71
2022/10/23 00:24:35;;;;;;;8.43;6.35;;;;;;;7.06;96.07;100862.78;5052370;28;20398;-70
2022/10/23 00:27:01;;;;;;;8.30;6.25;;;;;;;7.13;95.87;100852.56;5051960;28;20025;-71
2022/10/23 00:29:27;;;;;;;9.73;6.60;;;;;;;7.18;95.62;100858.47;5053184;28;20021;-71
2022/10/23 00:31:52;;;;;;;7.68;6.53;;;;;;;7.22;95.35;100859.97;5052674;28;20036;-70
2022/10/23 00:34:18;;;;;;;8.98;5.70;;;;;;;7.16;94.74;100855.03;5052353;28;20444;-71
2022/10/23 00:36:44;;;;;;;7.32;5.90;;;;;;;7.33;94.65;100860.13;5052208;28;20086;-71
2022/10/23 00:39:09;;;;;;;8.90;4.95;;;;;;;7.22;94.00;100863.53;5053092;28;20044;-70
2022/10/23 00:41:35;;;;;;;6.85;5.22;;;;;;;7.16;94.50;100857.69;5051997;28;20545;-70
2022/10/23 00:44:06;;;;;;;6.13;5.00;;;;;;;7.10;93.74;100850.94;5052401;28;20057;-70
2022/10/23 00:46:32;;;;;;;7.05;5.32;;;;;;;7.13;93.94;100857.91;5051874;28;20108;-70
2022/10/23 00:48:59;;;;;;;9.35;5.50;;;;;;;7.14;93.94;100859.63;5053414;28;20060;-70
2022/10/23 00:51:28;;;;;;;6.38;5.68;;;;;;;7.04;94.30;100858.47;5053249;28;20056;-69
2022/10/23 00:53:57;;;;;;;9.15;5.88;;;;;;;6.94;94.89;100853.72;5051697;28;20494;-70
2022/10/23 00:56:24;;;;;;;9.00;6.85;;;;;;;6.87;95.26;100857.72;5051721;28;20032;-71
2022/10/23 00:58:50;;;;;;;7.97;6.03;;;;;;;6.83;96.05;100853.53;5053226;28;20029;-70
2022/10/23 01:01:19;;;;;;;7.43;6.35;;;;;;;6.94;95.16;100864.41;5051689;28;20102;-69
2022/10/23 01:03:46;;;;;;;8.18;6.25;;;;;;;6.90;95.77;100862.91;5053162;28;20035;-71
2022/10/23 01:06:49;;;;;;;7.88;6.28;;;;;;;6.64;96.73;100869.00;5053303;28;20040;-69
2022/10/23 01:09:36;;;;;;;9.13;6.68;;;;;;;6.49;97.32;100867.28;5052912;28;20032;-71
2022/10/23 01:12:07;;;;;;;10.38;6.88;;;;;;;6.38;97.47;100857.25;5051689;28;20040;-71
2022/10/23 01:15:03;;;;;;;9.85;6.60;;;;;;;6.26;97.77;100866.88;5051662;28;20029;-72
2022/10/23 01:17:36;;;;;;;9.60;5.88;;;;;;;6.21;98.59;100866.28;5051802;28;20401;-72
2022/10/23 01:20:20;;;;;;;8.23;6.13;;;;;;;6.15;99.11;100874.66;5051515;28;20437;-72
2022/10/23 01:23:23;;;;;;;8.20;5.93;;;;;;;6.23;97.75;100872.41;5052797;28;20029;-72
2022/10/23 01:26:30;;;;;;;10.43;6.80;;;;;;;6.33;97.22;100870.88;5051509;28;20042;-71
2022/10/23 01:29:32;;;;;;;9.05;5.88;;;;;;;6.39;97.25;100876.81;5037544;28;20064;-71
2022/10/23 01:32:08;;;;;;;7.43;5.65;;;;;;;6.43;96.61;100873.88;5043747;28;20432;-71
2022/10/23 01:34:49;;;;;;;9.68;6.03;;;;;;;6.51;96.09;100884.06;5052725;28;20036;-72
2022/10/23 01:37:27;;;;;;;8.00;5.93;;;;;;;6.49;95.84;100877.97;5052288;28;20071;-73
2022/10/23 01:39:58;;;;;;;10.48;6.38;;;;;;;6.43;95.82;100867.66;5052470;28;20025;-71
2022/10/23 01:42:30;;;;;;;25.35;6.55;;;;;;;6.49;96.07;100878.81;5051245;28;20608;-73
2022/10/23 01:45:04;;;;;;;7.72;5.90;;;;;;;6.43;96.11;100884.56;5052790;28;20111;-71
2022/10/23 01:47:34;;;;;;;7.10;5.50;;;;;;;6.42;96.43;100882.84;5051384;28;20047;-73
2022/10/23 01:50:02;;;;;;;7.88;5.88;;;;;;;6.41;96.08;100889.13;5051303;28;20136;-71
2022/10/23 01:52:28;;;;;;;8.35;6.18;;;;;;;6.39;95.86;100883.03;5050624;28;20044;-73
2022/10/23 01:54:58;;;;;;;9.38;6.40;;;;;;;6.51;95.56;100887.59;5051262;28;20041;-71
2022/10/23 01:57:27;;;;;;;8.82;6.20;;;;;;;6.58;94.88;100882.75;5051218;28;20029;-72
2022/10/23 01:59:58;;;;;;;9.27;6.45;;;;;;;6.61;94.76;100887.91;5052478;28;20079;-72
2022/10/23 02:02:26;;;;;;;7.80;6.22;;;;;;;6.53;94.67;100885.69;5052659;28;20139;-72
2022/10/23 02:05:27;;;;;;;8.27;5.53;;;;;;;6.59;93.60;100885.34;5052116;28;20075;-72
2022/10/23 02:07:53;;;;;;;8.38;5.78;;;;;;;6.54;93.11;100882.06;5052118;28;20025;-72
2022/10/23 02:10:21;;;;;;;6.45;5.25;;;;;;;6.57;92.99;100897.06;5052223;28;20103;-72
2022/10/23 02:13:02;;;;;;;7.28;5.00;;;;;;;6.53;93.10;100880.34;5050706;28;20021;-72
2022/10/23 02:15:50;;;;;;;7.75;5.72;;;;;;;6.51;93.08;100882.25;5051915;28;20041;-72
2022/10/23 02:18:31;;;;;;;11.77;5.88;;;;;;;6.53;92.17;100890.16;5050415;28;20154;-71
2022/10/23 02:21:28;;;;;;;6.45;4.70;;;;;;;6.47;92.23;100890.56;5051879;28;20035;-71
2022/10/23 02:24:10;;;;;;;8.55;5.32;;;;;;;6.46;92.00;100875.50;5050058;28;20041;-71
2022/10/23 02:26:39;;;;;;;6.47;5.10;;;;;;;6.52;92.27;100883.97;5050737;28;20029;-72
2022/10/23 02:29:26;;;;;;;9.55;5.57;;;;;;;6.49;91.94;100883.31;5051825;28;20115;-71
2022/10/23 02:31:53;;;;;;;7.53;5.60;;;;;;;6.40;91.39;100881.22;5050660;28;20017;-72
2022/10/23 02:34:19;;;;;;;7.45;5.47;;;;;;;6.47;91.60;100885.22;5051740;28;20033;-72
2022/10/23 02:36:45;;;;;;;8.55;5.38;;;;;;;6.49;91.64;100885.97;5052365;28;20039;-72
2022/10/23 02:39:10;;;;;;;9.05;5.63;;;;;;;6.43;91.68;100884.56;5084076;28;20036;-71
2022/10/23 02:41:52;;;;;;;8.00;4.93;;;;;;;6.46;91.09;100878.16;5050673;28;20033;-72
2022/10/23 02:44:27;;;;;;;9.45;5.30;;;;;;;6.34;90.79;100872.59;5055642;28;20489;-71
2022/10/23 02:47:05;;;;;;;6.25;5.18;;;;;;;6.40;91.55;100878.53;5056512;28;20481;-71
2022/10/23 02:49:43;;;;;;;6.85;5.00;;;;;;;6.49;90.11;100877.97;5055564;28;20393;-71
2022/10/23 02:52:26;;;;;;;9.32;5.35;;;;;;;6.36;89.83;100877.00;5055730;28;20025;-71
2022/10/23 02:55:13;;;;;;;8.35;4.90;;;;;;;6.20;90.33;100883.25;5055448;28;20092;-71
2022/10/23 02:57:45;;;;;;;6.85;4.95;;;;;;;6.10;90.00;100892.78;5055671;28;20138;-70
2022/10/23 03:00:19;;;;;;;6.50;4.70;;;;;;;6.11;90.73;100891.81;5054353;28;20040;-72
2022/10/23 03:03:07;;;;;;;7.15;5.25;;;;;;;6.03;90.52;100891.41;5055456;28;20469;-72
2022/10/23 03:05:37;;;;;;;7.32;5.03;;;;;;;6.09;91.19;100900.88;5054306;28;20471;-70
2022/10/23 03:08:05;;;;;;;5.32;4.40;;;;;;;5.98;90.54;100898.84;5054252;28;20538;-71
2022/10/23 03:10:30;;;;;;;5.60;4.80;;;;;;;5.89;90.67;100905.56;5055465;28;20029;-73
2022/10/23 03:12:56;;;;;;;7.43;4.95;;;;;;;5.79;90.46;100911.50;5055126;28;20569;-72
2022/10/23 03:15:22;;;;;;;6.85;5.22;;;;;;;5.68;90.87;100901.44;5055722;28;20065;-72
2022/10/23 03:17:47;;;;;;;6.13;5.05;;;;;;;5.58;90.85;100890.44;5056292;28;20551;-72
2022/10/23 03:20:13;;;;;;;7.97;5.05;;;;;;;5.48;90.81;100905.25;5054058;28;20032;-73
2022/10/23 03:22:38;;;;;;;6.60;5.30;;;;;;;5.37;91.65;100907.66;5055086;28;20396;-72
2022/10/23 03:25:04;;;;;;;6.97;5.35;;;;;;;5.28;92.10;100913.50;5054911;28;20044;-72
2022/10/23 03:27:31;;;;;;;9.07;5.00;;;;;;;5.30;92.13;100911.59;5053687;28;20090;-71
2022/10/23 03:29:56;;;;;;;7.13;5.13;;;;;;;5.25;91.70;100908.34;5054894;28;20072;-70
2022/10/23 03:32:22;;;;;;;7.75;5.25;;;;;;;5.11;91.57;100912.63;5053657;28;20044;-72
2022/10/23 03:34:47;;;;;;;7.65;5.15;;;;;;;5.03;91.74;100906.84;5053707;28;20039;-70
2022/10/23 03:37:13;;;;;;;7.13;5.38;;;;;;;4.99;92.24;100913.28;5054837;28;20037;-71
2022/10/23 03:39:39;;;;;;;7.10;5.20;;;;;;;5.01;92.04;100900.75;5053550;28;20083;-70
2022/10/23 03:42:04;;;;;;;6.85;5.13;;;;;;;4.92;92.14;100898.59;5054716;28;20541;-70
2022/10/23 03:44:30;;;;;;;9.38;4.93;;;;;;;4.97;91.64;100903.66;5054763;28;20474;-70
2022/10/23 03:46:56;;;;;;;7.32;5.75;;;;;;;4.87;91.92;100903.31;5054556;28;20111;-70
2022/10/23 03:49:22;;;;;;;10.80;6.05;;;;;;;4.82;91.90;100900.88;5053291;28;20028;-69
2022/10/23 03:51:51;;;;;;;12.88;5.03;;;;;;;4.79;92.05;100905.53;5054740;28;20108;-70
2022/10/23 03:54:19;;;;;;;9.15;6.30;;;;;;;4.80;92.07;100902.78;5053272;28;20450;-71
2022/10/23 03:56:45;;;;;;;10.35;5.70;;;;;;;4.74;91.91;100903.13;5054455;28;20025;-71
2022/10/23 03:59:10;;;;;;;7.43;5.53;;;;;;;4.75;92.15;100909.31;5054131;28;20036;-71
2022/10/23 04:01:36;;;;;;;9.35;6.88;;;;;;;4.69;91.94;100904.28;5054226;28;20547;-72
2022/10/23 04:04:01;;;;;;;8.20;5.78;;;;;;;4.70;92.89;100908.66;5054273;28;20029;-71
2022/10/23 04:06:27;;;;;;;9.45;6.30;;;;;;;4.72;92.93;100910.34;5054146;28;20033;-72
2022/10/23 04:08:52;;;;;;;6.53;5.28;;;;;;;4.68;93.09;100919.41;5052817;28;20432;-71
2022/10/23 04:11:18;;;;;;;8.15;6.15;;;;;;;4.75;92.99;100911.97;5052791;28;20594;-71
2022/10/23 04:13:44;;;;;;;7.38;5.43;;;;;;;4.86;92.92;100917.56;5053243;28;20029;-72
2022/10/23 04:16:09;;;;;;;10.15;5.85;;;;;;;4.81;92.26;100914.28;5054212;28;20135;-71
2022/10/23 04:18:35;;;;;;;8.68;6.00;;;;;;;4.83;92.26;100917.72;5052848;28;20426;-71
2022/10/23 04:21:00;;;;;;;8.77;6.03;;;;;;;4.92;92.11;100917.25;5053908;28;20426;-71
2022/10/23 04:23:26;;;;;;;8.98;6.45;;;;;;;4.85;92.42;100926.50;5052879;28;20493;-70
2022/10/23 04:25:55;;;;;;;8.20;5.32;;;;;;;4.89;92.19;100925.41;5052729;28;20025;-70
2022/10/23 04:28:20;;;;;;;8.75;5.50;;;;;;;4.92;92.22;100930.56;5054068;28;20036;-71
2022/10/23 04:30:46;;;;;;;9.77;6.22;;;;;;;4.77;92.55;100923.41;5053849;28;20431;-70
2022/10/23 04:33:11;;;;;;;7.25;4.85;;;;;;;4.83;92.29;100937.25;5053562;28;20064;-71
2022/10/23 04:35:37;;;;;;;7.90;5.47;;;;;;;4.86;92.65;100933.53;5053732;28;20032;-71
2022/10/23 04:38:02;;;;;;;7.63;5.28;;;;;;;4.78;92.91;100941.09;5054135;28;20037;-71
2022/10/23 04:40:29;;;;;;;10.07;5.57;;;;;;;4.71;93.43;100937.06;5053799;28;20025;-71
2022/10/23 04:42:56;;;;;;;11.80;6.10;;;;;;;4.67;93.27;100938.13;5053729;28;20375;-71
2022/10/23 04:45:21;;;;;;;8.00;5.85;;;;;;;4.62;93.53;100941.03;5053567;28;20033;-71
2022/10/23 04:47:47;;;;;;;8.27;5.10;;;;;;;4.48;94.18;100939.09;5052343;28;20048;-70
2022/10/23 04:50:13;;;;;;;8.70;5.88;;;;;;;4.41;94.98;100940.38;5053389;28;20155;-71
2022/10/23 04:52:39;;;;;;;7.45;5.97;;;;;;;4.35;94.62;100946.00;5052279;28;20049;-70
2022/10/23 04:55:06;;;;;;;9.75;5.63;;;;;;;4.22;95.42;100951.09;5053186;28;20036;-71
2022/10/23 04:57:32;;;;;;;8.48;6.28;;;;;;;4.16;95.24;100953.19;5052068;28;20036;-71
2022/10/23 04:59:58;;;;;;;8.20;5.55;;;;;;;4.11;95.38;100945.44;5051642;28;20386;-72
2022/10/23 05:02:23;;;;;;;9.75;6.10;;;;;;;4.06;95.50;100951.94;5053386;28;20155;-72
2022/10/23 05:04:49;;;;;;;8.45;6.18;;;;;;;4.00;96.37;100952.25;5053349;28;20028;-72
2022/10/23 05:07:15;;;;;;;8.60;6.22;;;;;;;3.95;96.41;100954.28;5053198;28;20115;-73
2022/10/23 05:09:41;;;;;;;12.13;6.72;;;;;;;3.85;96.79;100949.38;5055951;28;20064;-72
2022/10/23 05:12:07;;;;;;;10.40;6.80;;;;;;;3.84;96.73;100950.34;5056580;28;20036;-72
2022/10/23 05:14:33;;;;;;;9.60;6.35;;;;;;;3.79;96.91;100957.69;5054827;28;20139;-73
2022/10/23 05:17:03;;;;;;;9.45;6.70;;;;;;;3.84;97.30;100962.78;5053349;28;20454;-72
2022/10/23 05:19:42;;;;;;;9.35;6.43;;;;;;;3.81;96.66;100962.94;5053410;28;20036;-72
2022/10/23 05:22:09;;;;;;;9.20;6.55;;;;;;;3.74;96.99;100967.69;5053474;28;20060;-73
2022/10/23 05:24:35;;;;;;;9.75;6.20;;;;;;;3.80;96.89;100966.53;5051599;28;20033;-73
2022/10/23 05:27:00;;;;;;;8.52;6.03;;;;;;;3.73;96.38;100971.28;5052812;28;20035;-71
2022/10/23 05:29:26;;;;;;;9.95;6.03;;;;;;;3.73;96.98;100973.09;5052853;28;20402;-71
2022/10/23 05:31:55;;;;;;;8.48;5.95;;;;;;;3.64;96.78;100966.41;5051741;28;20033;-72
2022/10/23 05:34:25;;;;;;;11.55;7.00;;;;;;;3.65;96.46;100973.44;5051444;28;20036;-73
2022/10/23 05:36:52;;;;;;;10.48;6.55;;;;;;;3.59;96.77;100971.09;5052828;28;20021;-73
2022/10/23 05:39:18;;;;;;;12.02;6.40;;;;;;;3.61;96.64;100982.50;5051045;28;20036;-72
2022/10/23 05:41:44;;;;;;;10.20;7.05;;;;;;;3.59;96.95;100984.38;5051185;28;20123;-72
2022/10/23 05:44:09;;;;;;;9.68;6.88;;;;;;;3.63;97.20;100985.94;5051530;28;20061;-73
2022/10/23 05:46:40;;;;;;;9.45;6.90;;;;;;;3.64;97.20;100987.69;5051307;28;20179;-73
2022/10/23 05:49:06;;;;;;;10.15;6.68;;;;;;;3.57;96.90;100980.94;5052206;28;20028;-71
2022/10/23 05:51:36;;;;;;;10.65;6.55;;;;;;;3.65;96.33;100986.75;5051116;28;20021;-72
2022/10/23 05:54:02;;;;;;;8.25;5.57;;;;;;;3.65;95.65;100989.41;5052330;28;20408;-73
2022/10/23 05:56:28;;;;;;;9.93;6.90;;;;;;;3.47;96.05;100984.94;5052516;28;20055;-73
2022/10/23 05:58:54;;;;;;;9.45;6.10;;;;;;;3.42;96.43;100992.28;5051347;28;20060;-73
2022/10/23 06:01:21;;;;;;;10.68;6.95;;;;;;;3.47;96.18;100998.25;5050742;28;20040;-73
2022/10/23 06:03:47;;;;;;;9.43;6.22;;;;;;;3.33;96.52;101009.50;5050779;28;20064;-76
2022/10/23 06:06:13;;;;;;;11.10;6.35;;;;;;;3.25;96.71;100996.59;5050915;28;20129;-71
2022/10/23 06:08:38;;;;;;;10.82;6.82;;;;;;;3.23;96.54;101002.91;5052985;28;20036;-73
2022/10/23 06:11:13;;;;;;;8.30;6.38;;;;;;;3.24;97.19;101005.50;5050782;28;20032;-73
2022/10/23 06:13:41;;;;;;;11.18;6.50;;;;;;;3.32;97.16;101013.97;5052410;28;20031;-72
2022/10/23 06:16:12;;;;;;;13.48;6.45;;;;;;;3.46;96.78;101007.16;5052774;28;20508;-73
2022/10/23 06:18:39;;;;;;;14.30;7.60;;;;;;;3.27;96.15;101008.00;5050506;28;20390;-73
2022/10/23 06:21:05;;;;;;;10.13;6.65;;;;;;;3.29;96.18;101024.75;5052379;28;20029;-72
2022/10/23 06:23:35;;;;;;;10.77;7.32;;;;;;;3.21;96.50;101028.69;5052610;28;20489;-73
2022/10/23 06:26:01;;;;;;;10.27;6.60;;;;;;;3.22;96.51;101030.44;5052149;28;20553;-72
2022/10/23 06:28:27;;;;;;;11.88;8.38;;;;;;;3.16;96.20;101028.88;5052212;28;20060;-72
2022/10/23 06:30:52;;;;;;;10.60;7.15;;;;;;;3.21;96.88;101037.53;5052174;28;20060;-73
2022/10/23 06:33:18;;;;;;;10.02;6.63;;;;;;;3.36;96.74;101045.72;5051817;28;20469;-73
2022/10/23 06:35:44;;;;;;;12.50;7.07;;;;;;;3.46;96.70;101052.34;5051776;28;20075;-73
2022/10/23 06:38:09;;;;;;;8.85;6.45;;;;;;;3.50;96.51;101059.25;5051652;28;20029;-72
2022/10/23 06:40:36;;;;;;;9.18;6.93;;;;;;;3.59;95.69;101053.50;5050569;28;20033;-71
2022/10/23 06:43:03;;;;;;;10.05;6.93;;;;;;;3.76;95.03;101056.25;5051685;28;20048;-73
2022/10/23 06:45:31;;;;;;;10.70;6.72;;;;;;;3.69;95.42;101054.78;5051921;28;20538;-74
2022/10/23 06:47:57;;;;;;;10.43;5.80;;;;;;;3.70;94.71;101053.88;5052152;28;20481;-73
2022/10/23 06:50:24;;;;;;;12.10;8.57;;;;;;;3.71;94.15;101063.59;5050425;28;20047;-73
2022/10/23 06:52:49;;;;;;;16.10;10.90;;;;;;;3.71;94.46;101068.91;5050407;28;20064;-73
2022/10/23 06:55:16;;;;;;;10.85;7.45;;;;;;;3.66;94.48;101060.25;5051286;28;20033;-73
2022/10/23 06:57:41;;;;;;;9.98;6.75;;;;;;;3.69;94.44;101062.78;5052049;28;20024;-73
2022/10/23 07:00:08;;;;;;;9.68;6.10;;;;;;;3.61;94.12;101063.13;5051551;28;20115;-73
2022/10/23 07:02:34;;;;;;;8.68;5.57;;;;;;;3.76;94.01;101056.25;5050096;28;20027;-72
2022/10/23 07:05:00;;;;;;;8.73;6.18;;;;;;;3.82;93.71;101055.94;5050212;28;20032;-72
2022/10/23 07:07:25;;;;;;;8.98;5.85;;;;;;;3.92;93.47;101065.22;5050558;28;20120;-74
2022/10/23 07:09:51;;;;;;;9.20;5.88;;;;;;;3.96;93.06;101057.09;5050172;28;20044;-72
2022/10/23 07:12:16;;;;;;;7.50;5.80;;;;;;;4.00;92.61;101063.97;5051511;28;20029;-72
2022/10/23 07:14:42;;;;;;;8.40;5.72;;;;;;;4.13;92.69;101065.13;5050247;28;20529;-73
2022/10/23 07:17:07;;;;;;;8.30;6.15;;;;;;;4.20;92.02;101063.91;5051326;28;20114;-73
2022/10/23 07:19:33;;;;;;;8.82;5.93;;;;;;;4.08;91.79;101072.47;5051324;28;20104;-74
2022/10/23 07:21:58;;;;;;;7.43;5.57;;;;;;;4.14;92.48;101072.16;5050228;28;20025;-71
2022/10/23 07:24:24;;;;;;;10.57;5.90;;;;;;;4.37;91.95;101079.03;5050275;28;20032;-73
2022/10/23 07:26:50;;;;;;;10.43;6.25;;;;;;;4.26;91.26;101074.25;5050027;28;20074;-74
2022/10/23 07:29:15;;;;;;;8.27;6.20;;;;;;;4.39;91.43;101077.16;5049831;28;20214;-73
2022/10/23 07:31:41;;;;;;;8.23;5.35;;;;;;;4.21;91.21;101077.13;5055167;28;20040;-73
2022/10/23 07:34:08;;;;;;;8.70;6.20;;;;;;;4.34;91.35;101085.34;5054672;28;20040;-73
2022/10/23 07:36:33;;;;;;;9.43;6.15;;;;;;;4.44;90.83;101077.78;5055353;28;20033;-73
2022/10/23 07:38:59;;;;;;;6.47;5.40;;;;;;;4.35;90.37;101081.75;5054488;28;20035;-73
2022/10/23 07:41:24;;;;;;;7.45;5.47;;;;;;;4.31;90.14;101084.66;5053305;28;20031;-73
2022/10/23 07:43:50;;;;;;;12.82;6.32;;;;;;;4.28;90.67;101083.00;5054959;28;20029;-74
2022/10/23 07:46:16;;;;;;;7.30;5.68;;;;;;;4.40;90.72;101082.41;5054303;28;20021;-74
2022/10/23 07:48:41;;;;;;;6.63;5.57;;;;;;;4.20;90.75;101083.41;5054513;28;20036;-71
2022/10/23 07:51:11;;;;;;;8.95;6.35;;;;;;;4.24;91.63;101089.44;5054093;28;20029;-73
2022/10/23 07:53:38;;;;;;;10.02;7.03;;;;;;;4.46;90.42;101087.44;5054091;28;20486;-73
2022/10/23 07:56:12;;;;;;;10.13;6.32;;;;;;;3.93;91.38;101088.22;5053959;28;20029;-74
2022/10/23 07:58:37;;;;;;;10.30;6.40;;;;;;;3.95;92.55;101092.63;5053030;28;20375;-74
2022/10/23 08:01:03;;;;;;;9.95;6.45;;;;;;;4.03;92.24;101091.34;5053612;28;20036;-73
2022/10/23 08:03:31;;;;;;;8.35;6.60;;;;;;;3.98;92.20;101081.81;5055335;28;20036;-72
2022/10/23 08:05:58;;;;;;;7.15;5.15;;;;;;;4.33;92.37;101094.28;5054671;28;20118;-72
2022/10/23 08:08:24;;;;;;;9.88;5.90;;;;;;;4.17;91.43;101093.31;5054116;28;20037;-73
2022/10/23 08:10:52;;;;;;;8.30;5.47;;;;;;;4.56;90.68;101100.28;5054256;28;20040;-73
2022/10/23 08:13:19;;;;;;;8.80;4.95;;;;;;;4.48;89.97;101103.31;5053695;28;20035;-74
2022/10/23 08:15:47;;;;;;;6.40;4.43;;;;;;;4.50;89.52;101107.63;5053835;28;20037;-73
2022/10/23 08:18:13;;;;;;;7.60;5.50;;;;;;;4.61;89.17;101109.78;5052595;28;20028;-73
2022/10/23 08:20:43;;;;;;;7.05;5.55;;;;;;;4.47;89.17;101107.78;5054143;28;20540;-71
2022/10/23 08:23:11;;;;;;;9.32;5.90;;;;;;;4.31;89.17;101106.81;5053867;28;20059;-73
2022/10/23 08:25:40;;;;;;;9.35;6.55;;;;;;;4.30;89.95;101105.09;5052290;28;20079;-73
2022/10/23 08:28:07;;;;;;;6.97;5.85;;;;;;;4.37;90.50;101111.00;5052485;28;20385;-73
2022/10/23 08:30:33;;;;;;;6.38;5.32;;;;;;;4.63;89.28;101112.34;5053538;28;20040;-74
2022/10/23 08:33:02;;;;;;;9.18;6.32;;;;;;;4.78;89.12;101119.59;5053408;28;20104;-71
2022/10/23 08:35:28;;;;;;;9.75;6.57;;;;;;;4.42;89.48;101117.81;5052092;28;20037;-75
2022/10/23 08:37:53;;;;;;;9.95;5.63;;;;;;;4.68;88.98;101116.50;5053509;28;20021;-73
2022/10/23 08:40:23;;;;;;;7.28;5.47;;;;;;;4.70;89.15;101124.41;5053052;28;20037;-73
2022/10/23 08:43:11;;;;;;;8.30;5.45;;;;;;;4.55;89.13;101125.22;5053339;28;20029;-73
2022/10/23 08:45:58;;;;;;;7.70;5.35;;;;;;;4.73;88.10;101134.94;5051837;28;20123;-72
2022/10/23 08:48:29;;;;;;;7.93;6.00;;;;;;;4.76;88.01;101132.13;5052170;28;20036;-72
2022/10/23 08:50:59;;;;;;;6.88;5.40;;;;;;;4.71;87.99;101132.34;5051612;28;20029;-72
2022/10/23 08:53:42;;;;;;;7.55;4.80;;;;;;;4.53;87.91;101133.25;5051291;28;20128;-71
2022/10/23 08:56:26;;;;;;;7.65;5.43;;;;;;;4.45;88.72;101136.28;5053000;28;20029;-71
2022/10/23 08:59:04;;;;;;;6.68;5.05;;;;;;;4.81;87.21;101148.72;5051986;28;20136;-74
2022/10/23 09:01:33;;;;;;;6.95;4.38;;;;;;;4.91;87.21;101136.69;5051497;28;20474;-72
2022/10/23 09:03:59;;;;;;;4.50;3.75;;;;;;;5.88;83.95;101128.00;5052995;28;20116;-73
2022/10/23 09:06:44;;;;;;;6.75;4.00;;;;;;;5.81;82.61;101129.25;5051941;28;20178;-71
2022/10/23 09:09:51;;;;;;;5.88;4.10;;;;;;;6.01;81.52;101133.53;5052823;28;20591;-73
2022/10/23 09:12:21;;;;;;;4.78;3.95;;;;;;;6.11;79.80;101134.75;5040436;28;20059;-72
2022/10/23 09:15:23;;;;;;;4.93;3.40;;;;;;;7.30;77.34;101130.47;5051835;28;20033;-72
2022/10/23 09:17:57;;;;;;;4.72;3.33;;;;;;;7.23;74.72;101134.50;5052059;28;20436;-73
2022/10/23 09:20:24;;;;;;;3.50;3.10;;;;;;;6.89;76.67;101128.47;5054079;28;20017;-74
2022/10/23 09:23:17;;;;;;;10.38;3.47;;;;;;;6.96;77.35;101136.13;5052380;28;20041;-72
2022/10/23 09:25:44;;;;;;;4.05;3.60;;;;;;;7.53;74.96;101129.06;5050185;28;20448;-72
2022/10/23 09:28:21;;;;;;;7.07;3.45;;;;;;;7.24;74.42;101136.22;5051563;28;20122;-72
2022/10/23 09:30:48;;;;;;;5.20;4.00;;;;;;;7.35;74.26;101141.75;5052488;28;20132;-72
2022/10/23 09:33:17;;;;;;;5.72;3.58;;;;;;;7.83;73.52;101137.00;5051572;28;20079;-71
2022/10/23 09:36:12;;;;;;;3.90;3.38;;;;;;;7.48;74.22;101153.44;5052551;28;20059;-72
2022/10/23 09:38:47;;;;;;;7.40;3.88;;;;;;;8.32;70.94;101139.25;5052976;28;20123;-72
2022/10/23 09:41:25;;;;;;;3.30;3.00;;;;;;;8.26;71.12;101145.88;5050425;28;20064;-72
2022/10/23 09:44:21;;;;;;;3.90;2.95;;;;;;;7.93;70.56;101140.84;5052137;28;20064;-72
2022/10/23 09:46:53;;;;;;;4.68;3.13;;;;;;;7.29;73.02;101146.63;5051869;28;20064;-72
2022/10/23 09:49:24;;;;;;;4.25;3.22;;;;;;;7.75;72.83;101160.75;5051554;28;20029;-71
2022/10/23 09:51:58;;;;;;;3.42;3.10;;;;;;;8.31;70.07;101153.59;5050545;28;20037;-71
2022/10/23 09:54:30;;;;;;;7.10;4.30;;;;;;;8.92;69.01;101163.03;5050980;28;20095;-71
2022/10/23 09:57:15;;;;;;;6.35;4.45;;;;;;;8.30;68.85;101162.59;5050728;28;20050;-70
2022/10/23 09:59:41;;;;;;;3.42;3.03;;;;;;;7.98;69.72;101161.97;5050263;28;20131;-70
2022/10/23 10:02:27;;;;;;;3.92;3.50;;;;;;;8.06;69.84;101165.91;5050206;28;20094;-71
2022/10/23 10:04:53;;;;;;;4.72;3.53;;;;;;;8.73;69.11;101155.31;5051808;28;20029;-70
2022/10/23 10:07:28;;;;;;;3.08;2.70;;;;;;;8.15;69.49;101159.09;5051564;28;20075;-69
2022/10/23 10:09:57;;;;;;;3.25;2.90;;;;;;;8.33;69.62;101162.41;5051420;28;20033;-70
2022/10/23 10:12:31;;;;;;;4.47;3.10;;;;;;;9.89;65.08;101153.56;5051110;28;20516;-71
2022/10/23 10:15:24;;;;;;;4.82;3.42;;;;;;;9.51;64.95;101153.56;5052944;28;20033;-72
2022/10/23 10:18:00;;;;;;;4.38;3.42;;;;;;;9.22;66.49;101157.41;5051886;28;20490;-70
2022/10/23 10:20:45;;;;;;;5.45;3.33;;;;;;;9.01;66.61;101159.72;5050087;28;20029;-70
2022/10/23 10:23:24;;;;;;;3.65;2.75;;;;;;;9.10;66.54;101152.88;5051123;28;20033;-69
2022/10/23 10:25:53;;;;;;;4.25;2.72;;;;;;;8.95;66.69;101157.47;5049778;28;20037;-69
2022/10/23 10:28:37;;;;;;;3.15;2.70;;;;;;;8.66;66.84;101152.19;5052263;28;20056;-69
2022/10/23 10:31:40;;;;;;;2.72;2.30;;;;;;;8.68;67.01;101152.94;5051533;28;20449;-68
2022/10/23 10:34:27;;;;;;;3.85;2.22;;;;;;;8.92;66.49;101160.34;5050359;28;20106;-68
2022/10/23 10:37:39;;;;;;;3.28;2.67;;;;;;;8.31;67.49;101158.97;5051733;28;20037;-69
2022/10/23 10:40:22;;;;;;;3.75;2.42;;;;;;;8.84;67.09;101157.31;5050733;28;20513;-69
2022/10/23 10:43:06;;;;;;;3.08;2.40;;;;;;;8.97;66.65;101163.56;5049287;28;20135;-69
2022/10/23 10:45:45;;;;;;;4.57;2.67;;;;;;;9.13;66.38;101160.72;5049350;28;20032;-68
2022/10/23 10:48:25;;;;;;;5.38;2.60;;;;;;;8.83;66.93;101169.00;5049743;28;20041;-69
2022/10/23 10:50:59;;;;;;;2.30;1.98;;;;;;;8.55;68.07;101162.75;5051386;28;20033;-70
2022/10/23 10:54:22;;;;;;;3.17;2.40;;;;;;;8.52;66.80;101176.34;5051204;28;20057;-68
2022/10/23 10:56:47;;;;;;;6.60;4.10;;;;;;;8.10;68.39;101166.56;4993012;28;20029;-69
2022/10/23 10:59:27;;;;;;;4.22;2.95;;;;;;;8.55;68.02;101157.41;4992471;28;20464;-68
2022/10/23 11:02:27;;;;;;;4.38;2.28;;;;;;;8.57;67.53;101166.22;5030808;28;20037;-70
2022/10/23 11:04:59;;;;;;;3.10;2.10;;;;;;;8.39;67.60;101168.25;5038998;28;20096;-69
2022/10/23 11:07:36;;;;;;;3.22;2.00;;;;;;;8.26;67.41;101161.09;5054638;28;20118;-69
2022/10/23 11:10:11;;;;;;;3.15;1.90;;;;;;;8.54;67.14;101166.41;5053610;28;20036;-70
2022/10/23 11:12:37;;;;;;;;;;;;;;;8.51;66.35;101163.06;5055126;28;20029;-69
2022/10/23 11:15:02;;;;;;;9.10;2.17;;;;;;;8.20;67.65;101156.09;5052756;28;20335;-67
2022/10/23 11:17:41;;;;;;;2.92;2.08;;;;;;;8.36;66.73;101163.09;5054599;28;20087;-69
2022/10/23 11:20:38;;;;;;;2.95;1.73;;;;;;;8.32;66.36;101171.41;5054311;28;20031;-69
2022/10/23 11:23:31;;;;;;;4.35;2.38;;;;;;;8.19;66.54;101165.97;5052437;28;20049;-69
2022/10/23 11:26:34;;;;;;;2.72;1.40;;;;;;;8.41;66.89;101169.03;5054521;28;20104;-69
2022/10/23 11:29:21;;;;;;;2.03;1.50;;;;;;;8.41;66.66;101170.84;5052823;28;20029;-68
2022/10/23 11:31:59;;;;;;;3.55;1.58;;;;;;;8.33;66.30;101173.13;5052637;28;20492;-69
2022/10/23 11:34:58;;;;;;;5.82;1.40;;;;;;;8.40;65.86;101169.13;5052596;28;20052;-69
2022/10/23 11:37:25;;;;;;;4.25;1.80;;;;;;;8.34;65.36;101180.22;5054418;28;20028;-69
2022/10/23 11:40:00;;;;;;;4.03;1.98;;;;;;;8.23;66.09;101182.69;5053947;28;20032;-69
2022/10/23 11:42:40;;;;;;;4.80;2.03;;;;;;;8.43;65.99;101179.66;5052736;28;20072;-70
2022/10/23 11:45:26;;;;;;;7.07;2.05;;;;;;;8.49;66.33;101189.09;5052298;28;20044;-72
2022/10/23 11:48:22;;;;;;;6.40;2.03;;;;;;;8.43;65.93;101187.69;5054057;28;20099;-69
2022/10/23 11:50:50;;;;;;;2.65;1.38;;;;;;;8.35;65.19;101187.31;5035453;28;20444;-69
2022/10/23 11:53:45;;;;;;;4.53;1.65;;;;;;;8.21;65.39;101184.59;5052169;28;20053;-68